sensor_id;sensor_type;location;lat;lon;timestamp;P1;durP1;ratioP1;P2;durP2;ratioP2
20997;SDS011;10657;51.276;6.390;2022-11-21T00:02:00;13.02;;;3.28;;
20997;SDS011;10657;51.276;6.390;2022-11-21T00:04:27;15.00;;;3.25;;
20997;SDS011;10657;51.276;6.390;2022-11-21T00:06:54;10.95;;;2.90;;
20997;SDS011;10657;51.276;6.390;2022-11-21T00:09:21;11.02;;;2.50;;
20997;SDS011;10657;51.276;6.390;2022-11-21T00:11:49;15.57;;;4.22;;
20997;SDS011;10657;51.276;6.390;2022-11-21T00:14:16;14.82;;;3.00;;
20997;SDS011;10657;51.276;6.390;2022-11-21T00:16:43;15.18;;;3.95;;
20997;SDS011;10657;51.276;6.390;2022-11-21T00:19:10;13.40;;;3.80;;
20997;SDS011;10657;51.276;6.390;2022-11-21T00:21:37;17.55;;;3.15;;
20997;SDS011;10657;51.276;6.390;2022-11-21T00:24:04;19.17;;;3.40;;
20997;SDS011;10657;51.276;6.390;2022-11-21T00:26:31;16.35;;;4.00;;
20997;SDS011;10657;51.276;6.390;2022-11-21T00:28:57;18.23;;;4.18;;
20997;SDS011;10657;51.276;6.390;2022-11-21T00:31:24;16.75;;;4.22;;
20997;SDS011;10657;51.276;6.390;2022-11-21T00:33:51;19.00;;;4.22;;
20997;SDS011;10657;51.276;6.390;2022-11-21T00:36:17;18.27;;;4.10;;
20997;SDS011;10657;51.276;6.390;2022-11-21T00:38:44;15.20;;;3.42;;
20997;SDS011;10657;51.276;6.390;2022-11-21T00:41:10;16.13;;;3.40;;
20997;SDS011;10657;51.276;6.390;2022-11-21T00:43:37;13.73;;;3.03;;
20997;SDS011;10657;51.276;6.390;2022-11-21T00:46:04;8.48;;;2.80;;
20997;SDS011;10657;51.276;6.390;2022-11-21T00:48:30;9.45;;;2.80;;
20997;SDS011;10657;51.276;6.390;2022-11-21T00:50:57;10.57;;;2.47;;
20997;SDS011;10657;51.276;6.390;2022-11-21T00:53:25;11.23;;;2.40;;
20997;SDS011;10657;51.276;6.390;2022-11-21T00:55:52;9.18;;;2.20;;
20997;SDS011;10657;51.276;6.390;2022-11-21T00:58:19;8.95;;;2.08;;
20997;SDS011;10657;51.276;6.390;2022-11-21T01:00:45;11.27;;;2.42;;
20997;SDS011;10657;51.276;6.390;2022-11-21T01:03:12;10.38;;;2.40;;
20997;SDS011;10657;51.276;6.390;2022-11-21T01:05:38;5.78;;;1.60;;
20997;SDS011;10657;51.276;6.390;2022-11-21T01:08:05;8.70;;;1.75;;
20997;SDS011;10657;51.276;6.390;2022-11-21T01:10:32;12.32;;;2.45;;
20997;SDS011;10657;51.276;6.390;2022-11-21T01:13:00;9.43;;;1.75;;
20997;SDS011;10657;51.276;6.390;2022-11-21T01:15:27;7.78;;;1.60;;
20997;SDS011;10657;51.276;6.390;2022-11-21T01:17:53;10.90;;;2.33;;
20997;SDS011;10657;51.276;6.390;2022-11-21T01:20:20;7.15;;;1.80;;
20997;SDS011;10657;51.276;6.390;2022-11-21T01:22:46;6.35;;;1.40;;
20997;SDS011;10657;51.276;6.390;2022-11-21T01:25:13;7.50;;;1.80;;
20997;SDS011;10657;51.276;6.390;2022-11-21T01:27:40;11.95;;;3.47;;
20997;SDS011;10657;51.276;6.390;2022-11-21T01:30:06;10.05;;;5.00;;
20997;SDS011;10657;51.276;6.390;2022-11-21T01:32:33;12.57;;;5.60;;
20997;SDS011;10657;51.276;6.390;2022-11-21T01:35:00;16.30;;;5.95;;
20997;SDS011;10657;51.276;6.390;2022-11-21T01:37:26;19.88;;;7.13;;
20997;SDS011;10657;51.276;6.390;2022-11-21T01:39:53;13.23;;;6.45;;
20997;SDS011;10657;51.276;6.390;2022-11-21T01:42:20;16.85;;;7.43;;
20997;SDS011;10657;51.276;6.390;2022-11-21T01:44:50;11.45;;;5.28;;
20997;SDS011;10657;51.276;6.390;2022-11-21T01:47:18;7.85;;;3.15;;
20997;SDS011;10657;51.276;6.390;2022-11-21T01:49:45;6.18;;;2.10;;
20997;SDS011;10657;51.276;6.390;2022-11-21T01:54:55;8.35;;;2.88;;
20997;SDS011;10657;51.276;6.390;2022-11-21T01:57:37;9.63;;;3.40;;
20997;SDS011;10657;51.276;6.390;2022-11-21T02:00:09;4.85;;;1.42;;
20997;SDS011;10657;51.276;6.390;2022-11-21T02:02:42;16.00;;;6.68;;
20997;SDS011;10657;51.276;6.390;2022-11-21T02:05:20;15.60;;;7.30;;
20997;SDS011;10657;51.276;6.390;2022-11-21T02:07:51;14.15;;;6.07;;
20997;SDS011;10657;51.276;6.390;2022-11-21T02:10:22;17.75;;;7.60;;
20997;SDS011;10657;51.276;6.390;2022-11-21T02:12:51;13.80;;;6.63;;
20997;SDS011;10657;51.276;6.390;2022-11-21T02:15:20;9.82;;;4.05;;
20997;SDS011;10657;51.276;6.390;2022-11-21T02:17:48;10.95;;;5.00;;
20997;SDS011;10657;51.276;6.390;2022-11-21T02:20:16;19.25;;;8.73;;
20997;SDS011;10657;51.276;6.390;2022-11-21T02:22:47;18.92;;;7.82;;
20997;SDS011;10657;51.276;6.390;2022-11-21T02:25:30;14.98;;;6.20;;
20997;SDS011;10657;51.276;6.390;2022-11-21T02:28:02;7.00;;;3.03;;
20997;SDS011;10657;51.276;6.390;2022-11-21T02:30:38;21.77;;;11.25;;
20997;SDS011;10657;51.276;6.390;2022-11-21T02:33:06;17.88;;;9.48;;
20997;SDS011;10657;51.276;6.390;2022-11-21T02:35:33;28.00;;;15.02;;
20997;SDS011;10657;51.276;6.390;2022-11-21T02:38:01;20.88;;;10.40;;
20997;SDS011;10657;51.276;6.390;2022-11-21T02:40:32;22.85;;;11.38;;
20997;SDS011;10657;51.276;6.390;2022-11-21T02:43:15;26.38;;;14.90;;
20997;SDS011;10657;51.276;6.390;2022-11-21T02:45:46;16.90;;;8.57;;
20997;SDS011;10657;51.276;6.390;2022-11-21T02:48:13;16.85;;;7.72;;
20997;SDS011;10657;51.276;6.390;2022-11-21T02:50:44;27.30;;;14.30;;
20997;SDS011;10657;51.276;6.390;2022-11-21T02:53:15;25.23;;;12.70;;
20997;SDS011;10657;51.276;6.390;2022-11-21T02:55:43;17.75;;;8.95;;
20997;SDS011;10657;51.276;6.390;2022-11-21T02:58:10;26.70;;;14.52;;
20997;SDS011;10657;51.276;6.390;2022-11-21T03:00:38;19.70;;;10.93;;
20997;SDS011;10657;51.276;6.390;2022-11-21T03:03:06;22.15;;;10.77;;
20997;SDS011;10657;51.276;6.390;2022-11-21T03:05:33;20.17;;;8.98;;
20997;SDS011;10657;51.276;6.390;2022-11-21T03:08:00;17.77;;;7.65;;
20997;SDS011;10657;51.276;6.390;2022-11-21T03:10:27;22.27;;;11.55;;
20997;SDS011;10657;51.276;6.390;2022-11-21T03:12:53;20.20;;;8.77;;
20997;SDS011;10657;51.276;6.390;2022-11-21T03:15:30;27.52;;;15.65;;
20997;SDS011;10657;51.276;6.390;2022-11-21T03:17:59;27.38;;;13.55;;
20997;SDS011;10657;51.276;6.390;2022-11-21T03:20:31;21.60;;;11.65;;
20997;SDS011;10657;51.276;6.390;2022-11-21T03:22:59;28.88;;;15.13;;
20997;SDS011;10657;51.276;6.390;2022-11-21T03:25:27;20.35;;;10.45;;
20997;SDS011;10657;51.276;6.390;2022-11-21T03:27:54;25.35;;;13.85;;
20997;SDS011;10657;51.276;6.390;2022-11-21T03:30:21;28.00;;;14.65;;
20997;SDS011;10657;51.276;6.390;2022-11-21T03:32:49;17.63;;;9.15;;
20997;SDS011;10657;51.276;6.390;2022-11-21T03:35:16;19.95;;;9.68;;
20997;SDS011;10657;51.276;6.390;2022-11-21T03:37:43;21.65;;;10.95;;
20997;SDS011;10657;51.276;6.390;2022-11-21T03:40:09;18.35;;;9.38;;
20997;SDS011;10657;51.276;6.390;2022-11-21T03:42:36;25.15;;;12.32;;
20997;SDS011;10657;51.276;6.390;2022-11-21T03:45:03;18.90;;;8.70;;
20997;SDS011;10657;51.276;6.390;2022-11-21T03:47:30;18.65;;;9.15;;
20997;SDS011;10657;51.276;6.390;2022-11-21T03:49:57;15.77;;;8.40;;
20997;SDS011;10657;51.276;6.390;2022-11-21T03:52:23;20.80;;;8.98;;
20997;SDS011;10657;51.276;6.390;2022-11-21T03:54:50;18.30;;;8.00;;
20997;SDS011;10657;51.276;6.390;2022-11-21T03:57:17;11.25;;;5.05;;
20997;SDS011;10657;51.276;6.390;2022-11-21T03:59:44;17.77;;;8.15;;
20997;SDS011;10657;51.276;6.390;2022-11-21T04:02:10;22.85;;;12.45;;
20997;SDS011;10657;51.276;6.390;2022-11-21T04:04:37;20.25;;;10.50;;
20997;SDS011;10657;51.276;6.390;2022-11-21T04:07:04;17.00;;;8.95;;
20997;SDS011;10657;51.276;6.390;2022-11-21T04:09:30;14.30;;;7.07;;
20997;SDS011;10657;51.276;6.390;2022-11-21T04:11:57;14.05;;;7.18;;
20997;SDS011;10657;51.276;6.390;2022-11-21T04:14:23;17.13;;;8.30;;
20997;SDS011;10657;51.276;6.390;2022-11-21T04:16:50;18.63;;;9.05;;
20997;SDS011;10657;51.276;6.390;2022-11-21T04:19:17;21.23;;;11.55;;
20997;SDS011;10657;51.276;6.390;2022-11-21T04:21:43;11.82;;;5.25;;
20997;SDS011;10657;51.276;6.390;2022-11-21T04:24:10;7.95;;;2.88;;
20997;SDS011;10657;51.276;6.390;2022-11-21T04:26:37;16.63;;;7.80;;
20997;SDS011;10657;51.276;6.390;2022-11-21T04:29:03;10.75;;;4.38;;
20997;SDS011;10657;51.276;6.390;2022-11-21T04:31:30;30.67;;;15.93;;
20997;SDS011;10657;51.276;6.390;2022-11-21T04:33:57;26.15;;;14.80;;
20997;SDS011;10657;51.276;6.390;2022-11-21T04:36:24;10.15;;;4.70;;
20997;SDS011;10657;51.276;6.390;2022-11-21T04:38:50;18.33;;;8.68;;
20997;SDS011;10657;51.276;6.390;2022-11-21T04:41:17;9.00;;;4.18;;
20997;SDS011;10657;51.276;6.390;2022-11-21T04:43:43;23.05;;;11.32;;
20997;SDS011;10657;51.276;6.390;2022-11-21T04:46:10;24.55;;;11.63;;
20997;SDS011;10657;51.276;6.390;2022-11-21T04:48:36;16.38;;;7.75;;
20997;SDS011;10657;51.276;6.390;2022-11-21T04:51:03;25.27;;;11.95;;
20997;SDS011;10657;51.276;6.390;2022-11-21T04:53:30;23.98;;;12.07;;
20997;SDS011;10657;51.276;6.390;2022-11-21T04:55:56;22.67;;;12.60;;
20997;SDS011;10657;51.276;6.390;2022-11-21T04:58:23;20.13;;;10.63;;
20997;SDS011;10657;51.276;6.390;2022-11-21T05:00:49;22.17;;;10.13;;
20997;SDS011;10657;51.276;6.390;2022-11-21T05:03:16;20.05;;;9.45;;
20997;SDS011;10657;51.276;6.390;2022-11-21T05:05:43;18.50;;;8.82;;
20997;SDS011;10657;51.276;6.390;2022-11-21T05:08:10;20.77;;;9.43;;
20997;SDS011;10657;51.276;6.390;2022-11-21T05:10:36;18.05;;;8.90;;
20997;SDS011;10657;51.276;6.390;2022-11-21T05:13:23;30.88;;;17.75;;
20997;SDS011;10657;51.276;6.390;2022-11-21T05:15:55;20.33;;;10.05;;
20997;SDS011;10657;51.276;6.390;2022-11-21T05:18:22;24.27;;;11.95;;
20997;SDS011;10657;51.276;6.390;2022-11-21T05:20:48;21.95;;;11.80;;
20997;SDS011;10657;51.276;6.390;2022-11-21T05:23:15;26.45;;;13.55;;
20997;SDS011;10657;51.276;6.390;2022-11-21T05:25:41;21.13;;;10.50;;
20997;SDS011;10657;51.276;6.390;2022-11-21T05:28:08;21.50;;;10.10;;
20997;SDS011;10657;51.276;6.390;2022-11-21T05:30:35;30.30;;;12.15;;
20997;SDS011;10657;51.276;6.390;2022-11-21T05:33:03;27.23;;;11.23;;
20997;SDS011;10657;51.276;6.390;2022-11-21T05:35:29;25.38;;;12.13;;
20997;SDS011;10657;51.276;6.390;2022-11-21T05:37:56;18.38;;;8.77;;
20997;SDS011;10657;51.276;6.390;2022-11-21T05:40:24;23.90;;;10.30;;
20997;SDS011;10657;51.276;6.390;2022-11-21T05:42:51;21.83;;;9.88;;
20997;SDS011;10657;51.276;6.390;2022-11-21T05:45:36;18.20;;;7.55;;
20997;SDS011;10657;51.276;6.390;2022-11-21T05:48:03;10.15;;;4.97;;
20997;SDS011;10657;51.276;6.390;2022-11-21T05:50:34;14.82;;;6.55;;
20997;SDS011;10657;51.276;6.390;2022-11-21T05:53:04;12.75;;;6.07;;
20997;SDS011;10657;51.276;6.390;2022-11-21T05:55:33;22.88;;;9.93;;
20997;SDS011;10657;51.276;6.390;2022-11-21T05:58:00;18.77;;;8.73;;
20997;SDS011;10657;51.276;6.390;2022-11-21T06:00:27;13.20;;;6.25;;
20997;SDS011;10657;51.276;6.390;2022-11-21T06:02:54;32.03;;;15.45;;
20997;SDS011;10657;51.276;6.390;2022-11-21T06:05:39;9.85;;;4.20;;
20997;SDS011;10657;51.276;6.390;2022-11-21T06:08:06;9.35;;;3.90;;
20997;SDS011;10657;51.276;6.390;2022-11-21T06:10:33;19.63;;;8.15;;
20997;SDS011;10657;51.276;6.390;2022-11-21T06:13:00;22.17;;;9.32;;
20997;SDS011;10657;51.276;6.390;2022-11-21T06:15:27;19.80;;;8.73;;
20997;SDS011;10657;51.276;6.390;2022-11-21T06:17:54;8.10;;;3.45;;
20997;SDS011;10657;51.276;6.390;2022-11-21T06:20:21;24.05;;;12.80;;
20997;SDS011;10657;51.276;6.390;2022-11-21T06:22:47;26.30;;;12.43;;
20997;SDS011;10657;51.276;6.390;2022-11-21T06:25:14;28.33;;;12.82;;
20997;SDS011;10657;51.276;6.390;2022-11-21T06:27:41;20.42;;;9.32;;
20997;SDS011;10657;51.276;6.390;2022-11-21T06:30:07;31.25;;;15.30;;
20997;SDS011;10657;51.276;6.390;2022-11-21T06:32:35;22.15;;;10.50;;
20997;SDS011;10657;51.276;6.390;2022-11-21T06:35:03;20.42;;;10.90;;
20997;SDS011;10657;51.276;6.390;2022-11-21T06:37:30;19.58;;;9.60;;
20997;SDS011;10657;51.276;6.390;2022-11-21T06:39:56;17.60;;;9.73;;
20997;SDS011;10657;51.276;6.390;2022-11-21T06:42:23;21.30;;;10.10;;
20997;SDS011;10657;51.276;6.390;2022-11-21T06:44:50;19.98;;;8.95;;
20997;SDS011;10657;51.276;6.390;2022-11-21T06:47:18;12.88;;;5.72;;
20997;SDS011;10657;51.276;6.390;2022-11-21T06:49:44;15.90;;;8.70;;
20997;SDS011;10657;51.276;6.390;2022-11-21T06:52:11;14.90;;;7.80;;
20997;SDS011;10657;51.276;6.390;2022-11-21T06:54:38;17.20;;;8.32;;
20997;SDS011;10657;51.276;6.390;2022-11-21T06:57:04;17.02;;;6.85;;
20997;SDS011;10657;51.276;6.390;2022-11-21T06:59:31;15.43;;;7.20;;
20997;SDS011;10657;51.276;6.390;2022-11-21T07:01:57;13.27;;;6.63;;
20997;SDS011;10657;51.276;6.390;2022-11-21T07:04:24;11.63;;;6.88;;
20997;SDS011;10657;51.276;6.390;2022-11-21T07:06:52;12.10;;;6.25;;
20997;SDS011;10657;51.276;6.390;2022-11-21T07:09:18;14.55;;;6.75;;
20997;SDS011;10657;51.276;6.390;2022-11-21T07:12:00;14.88;;;6.63;;
20997;SDS011;10657;51.276;6.390;2022-11-21T07:14:46;16.60;;;5.88;;
20997;SDS011;10657;51.276;6.390;2022-11-21T07:17:13;12.30;;;6.10;;
20997;SDS011;10657;51.276;6.390;2022-11-21T07:19:39;12.82;;;5.75;;
20997;SDS011;10657;51.276;6.390;2022-11-21T07:22:06;11.02;;;5.78;;
20997;SDS011;10657;51.276;6.390;2022-11-21T07:24:33;17.10;;;6.20;;
20997;SDS011;10657;51.276;6.390;2022-11-21T07:27:00;17.45;;;6.45;;
20997;SDS011;10657;51.276;6.390;2022-11-21T07:29:27;16.90;;;6.50;;
20997;SDS011;10657;51.276;6.390;2022-11-21T07:31:54;13.98;;;5.93;;
20997;SDS011;10657;51.276;6.390;2022-11-21T07:34:21;11.68;;;4.63;;
20997;SDS011;10657;51.276;6.390;2022-11-21T07:36:47;18.33;;;7.35;;
20997;SDS011;10657;51.276;6.390;2022-11-21T07:39:14;18.00;;;6.95;;
20997;SDS011;10657;51.276;6.390;2022-11-21T07:41:41;17.63;;;6.38;;
20997;SDS011;10657;51.276;6.390;2022-11-21T07:44:07;16.73;;;6.10;;
20997;SDS011;10657;51.276;6.390;2022-11-21T07:46:34;9.27;;;5.00;;
20997;SDS011;10657;51.276;6.390;2022-11-21T07:49:00;10.00;;;4.70;;
20997;SDS011;10657;51.276;6.390;2022-11-21T07:51:29;9.93;;;4.85;;
20997;SDS011;10657;51.276;6.390;2022-11-21T07:53:55;12.00;;;5.35;;
20997;SDS011;10657;51.276;6.390;2022-11-21T07:56:22;14.95;;;5.30;;
20997;SDS011;10657;51.276;6.390;2022-11-21T07:58:51;13.57;;;5.70;;
20997;SDS011;10657;51.276;6.390;2022-11-21T08:01:18;14.05;;;5.85;;
20997;SDS011;10657;51.276;6.390;2022-11-21T08:03:45;15.88;;;6.05;;
20997;SDS011;10657;51.276;6.390;2022-11-21T08:06:11;11.55;;;5.50;;
20997;SDS011;10657;51.276;6.390;2022-11-21T08:08:38;11.50;;;5.10;;
20997;SDS011;10657;51.276;6.390;2022-11-21T08:11:05;10.13;;;5.35;;
20997;SDS011;10657;51.276;6.390;2022-11-21T08:13:33;12.50;;;5.80;;
20997;SDS011;10657;51.276;6.390;2022-11-21T08:16:03;10.68;;;5.35;;
20997;SDS011;10657;51.276;6.390;2022-11-21T08:18:30;12.90;;;6.25;;
20997;SDS011;10657;51.276;6.390;2022-11-21T08:20:59;18.40;;;7.72;;
20997;SDS011;10657;51.276;6.390;2022-11-21T08:23:26;10.70;;;6.18;;
20997;SDS011;10657;51.276;6.390;2022-11-21T08:25:53;13.57;;;7.07;;
20997;SDS011;10657;51.276;6.390;2022-11-21T08:28:19;13.82;;;6.32;;
20997;SDS011;10657;51.276;6.390;2022-11-21T08:30:46;15.52;;;7.28;;
20997;SDS011;10657;51.276;6.390;2022-11-21T08:33:12;15.77;;;7.38;;
20997;SDS011;10657;51.276;6.390;2022-11-21T08:35:39;19.30;;;7.80;;
20997;SDS011;10657;51.276;6.390;2022-11-21T08:38:07;19.10;;;7.20;;
20997;SDS011;10657;51.276;6.390;2022-11-21T08:40:34;15.80;;;8.00;;
20997;SDS011;10657;51.276;6.390;2022-11-21T08:43:02;15.27;;;7.25;;
20997;SDS011;10657;51.276;6.390;2022-11-21T08:45:30;13.30;;;6.93;;
20997;SDS011;10657;51.276;6.390;2022-11-21T08:47:58;13.40;;;6.57;;
20997;SDS011;10657;51.276;6.390;2022-11-21T08:50:25;14.13;;;7.57;;
20997;SDS011;10657;51.276;6.390;2022-11-21T08:52:58;14.75;;;7.13;;
20997;SDS011;10657;51.276;6.390;2022-11-21T08:55:26;14.82;;;7.00;;
20997;SDS011;10657;51.276;6.390;2022-11-21T08:57:53;14.73;;;6.72;;
20997;SDS011;10657;51.276;6.390;2022-11-21T09:00:20;16.67;;;7.35;;
20997;SDS011;10657;51.276;6.390;2022-11-21T09:02:46;13.82;;;7.07;;
20997;SDS011;10657;51.276;6.390;2022-11-21T09:05:13;15.57;;;7.70;;
20997;SDS011;10657;51.276;6.390;2022-11-21T09:07:40;14.95;;;6.22;;
20997;SDS011;10657;51.276;6.390;2022-11-21T09:10:07;16.73;;;7.72;;
20997;SDS011;10657;51.276;6.390;2022-11-21T09:12:34;12.02;;;6.78;;
20997;SDS011;10657;51.276;6.390;2022-11-21T09:15:00;10.75;;;6.13;;
20997;SDS011;10657;51.276;6.390;2022-11-21T09:17:45;17.27;;;6.85;;
20997;SDS011;10657;51.276;6.390;2022-11-21T09:20:36;18.48;;;7.85;;
20997;SDS011;10657;51.276;6.390;2022-11-21T09:23:05;24.38;;;8.60;;
20997;SDS011;10657;51.276;6.390;2022-11-21T09:25:33;18.05;;;7.30;;
20997;SDS011;10657;51.276;6.390;2022-11-21T09:28:00;15.65;;;6.57;;
20997;SDS011;10657;51.276;6.390;2022-11-21T09:30:28;12.57;;;6.20;;
20997;SDS011;10657;51.276;6.390;2022-11-21T09:32:58;12.85;;;5.68;;
20997;SDS011;10657;51.276;6.390;2022-11-21T09:35:32;25.00;;;8.88;;
20997;SDS011;10657;51.276;6.390;2022-11-21T09:37:59;21.15;;;7.30;;
20997;SDS011;10657;51.276;6.390;2022-11-21T09:40:25;12.13;;;4.93;;
20997;SDS011;10657;51.276;6.390;2022-11-21T09:45:36;13.63;;;5.35;;
20997;SDS011;10657;51.276;6.390;2022-11-21T09:48:14;13.05;;;5.72;;
20997;SDS011;10657;51.276;6.390;2022-11-21T09:50:49;12.18;;;4.10;;
20997;SDS011;10657;51.276;6.390;2022-11-21T09:53:24;12.40;;;4.25;;
20997;SDS011;10657;51.276;6.390;2022-11-21T09:56:00;14.20;;;5.25;;
20997;SDS011;10657;51.276;6.390;2022-11-21T09:58:36;14.38;;;5.28;;
20997;SDS011;10657;51.276;6.390;2022-11-21T10:01:12;16.08;;;5.50;;
20997;SDS011;10657;51.276;6.390;2022-11-21T10:03:46;8.82;;;3.05;;
20997;SDS011;10657;51.276;6.390;2022-11-21T10:08:54;11.48;;;5.05;;
20997;SDS011;10657;51.276;6.390;2022-11-21T10:11:39;14.05;;;4.32;;
20997;SDS011;10657;51.276;6.390;2022-11-21T10:17:36;11.38;;;4.13;;
20997;SDS011;10657;51.276;6.390;2022-11-21T10:25:54;9.32;;;3.30;;
20997;SDS011;10657;51.276;6.390;2022-11-21T10:31:20;15.07;;;4.53;;
20997;SDS011;10657;51.276;6.390;2022-11-21T10:33:48;12.40;;;3.55;;
20997;SDS011;10657;51.276;6.390;2022-11-21T10:41:50;7.60;;;2.50;;
20997;SDS011;10657;51.276;6.390;2022-11-21T10:44:27;3.45;;;1.35;;
20997;SDS011;10657;51.276;6.390;2022-11-21T10:49:57;10.88;;;3.00;;
20997;SDS011;10657;51.276;6.390;2022-11-21T10:52:32;4.70;;;1.35;;
20997;SDS011;10657;51.276;6.390;2022-11-21T10:55:19;5.82;;;2.05;;
20997;SDS011;10657;51.276;6.390;2022-11-21T10:57:47;4.25;;;1.33;;
20997;SDS011;10657;51.276;6.390;2022-11-21T11:00:19;4.25;;;1.55;;
20997;SDS011;10657;51.276;6.390;2022-11-21T11:05:21;7.15;;;1.98;;
20997;SDS011;10657;51.276;6.390;2022-11-21T11:08:03;6.65;;;1.92;;
20997;SDS011;10657;51.276;6.390;2022-11-21T11:13:11;8.02;;;2.65;;
20997;SDS011;10657;51.276;6.390;2022-11-21T11:16:16;12.05;;;2.55;;
20997;SDS011;10657;51.276;6.390;2022-11-21T11:18:46;9.30;;;2.33;;
20997;SDS011;10657;51.276;6.390;2022-11-21T11:21:27;7.10;;;2.30;;
20997;SDS011;10657;51.276;6.390;2022-11-21T11:29:15;8.77;;;2.17;;
20997;SDS011;10657;51.276;6.390;2022-11-21T11:31:48;4.38;;;1.40;;
20997;SDS011;10657;51.276;6.390;2022-11-21T11:37:41;9.38;;;2.50;;
20997;SDS011;10657;51.276;6.390;2022-11-21T11:40:27;6.47;;;2.30;;
20997;SDS011;10657;51.276;6.390;2022-11-21T11:48:56;9.13;;;2.17;;
20997;SDS011;10657;51.276;6.390;2022-11-21T11:51:51;7.90;;;2.13;;
20997;SDS011;10657;51.276;6.390;2022-11-21T11:54:38;4.45;;;1.40;;
20997;SDS011;10657;51.276;6.390;2022-11-21T11:57:12;7.15;;;1.50;;
20997;SDS011;10657;51.276;6.390;2022-11-21T11:59:40;4.93;;;1.50;;
20997;SDS011;10657;51.276;6.390;2022-11-21T12:02:17;5.82;;;1.52;;
20997;SDS011;10657;51.276;6.390;2022-11-21T12:05:02;6.97;;;1.75;;
20997;SDS011;10657;51.276;6.390;2022-11-21T12:07:38;5.40;;;1.73;;
20997;SDS011;10657;51.276;6.390;2022-11-21T12:10:33;4.72;;;1.65;;
20997;SDS011;10657;51.276;6.390;2022-11-21T12:13:26;10.77;;;2.85;;
20997;SDS011;10657;51.276;6.390;2022-11-21T12:15:55;4.25;;;1.35;;
20997;SDS011;10657;51.276;6.390;2022-11-21T12:21:28;4.38;;;1.27;;
20997;SDS011;10657;51.276;6.390;2022-11-21T12:23:55;6.88;;;1.65;;
20997;SDS011;10657;51.276;6.390;2022-11-21T12:38:24;6.78;;;1.30;;
20997;SDS011;10657;51.276;6.390;2022-11-21T12:41:22;5.80;;;1.40;;
20997;SDS011;10657;51.276;6.390;2022-11-21T12:49:30;5.75;;;1.75;;
20997;SDS011;10657;51.276;6.390;2022-11-21T12:52:27;6.00;;;1.42;;
20997;SDS011;10657;51.276;6.390;2022-11-21T12:55:28;6.63;;;1.17;;
20997;SDS011;10657;51.276;6.390;2022-11-21T13:03:28;5.03;;;1.30;;
20997;SDS011;10657;51.276;6.390;2022-11-21T13:05:58;4.53;;;1.20;;
20997;SDS011;10657;51.276;6.390;2022-11-21T13:08:27;5.32;;;1.60;;
20997;SDS011;10657;51.276;6.390;2022-11-21T13:13:54;6.00;;;1.40;;
20997;SDS011;10657;51.276;6.390;2022-11-21T13:16:27;5.15;;;1.30;;
20997;SDS011;10657;51.276;6.390;2022-11-21T13:19:14;8.93;;;1.45;;
20997;SDS011;10657;51.276;6.390;2022-11-21T13:24:09;7.90;;;2.25;;
20997;SDS011;10657;51.276;6.390;2022-11-21T13:29:09;5.05;;;1.42;;
20997;SDS011;10657;51.276;6.390;2022-11-21T13:31:37;4.57;;;1.42;;
20997;SDS011;10657;51.276;6.390;2022-11-21T13:36:59;5.40;;;1.40;;
20997;SDS011;10657;51.276;6.390;2022-11-21T13:39:27;5.68;;;1.40;;
20997;SDS011;10657;51.276;6.390;2022-11-21T13:42:03;5.55;;;1.50;;
20997;SDS011;10657;51.276;6.390;2022-11-21T13:44:49;6.35;;;1.25;;
20997;SDS011;10657;51.276;6.390;2022-11-21T13:53:21;5.75;;;1.75;;
20997;SDS011;10657;51.276;6.390;2022-11-21T13:59:01;5.88;;;1.50;;
20997;SDS011;10657;51.276;6.390;2022-11-21T14:09:48;4.90;;;1.00;;
20997;SDS011;10657;51.276;6.390;2022-11-21T14:12:23;8.48;;;1.50;;
20997;SDS011;10657;51.276;6.390;2022-11-21T14:15:16;4.13;;;1.20;;
20997;SDS011;10657;51.276;6.390;2022-11-21T14:17:59;5.88;;;1.40;;
20997;SDS011;10657;51.276;6.390;2022-11-21T14:23:16;7.10;;;1.67;;
20997;SDS011;10657;51.276;6.390;2022-11-21T14:25:48;4.10;;;1.35;;
20997;SDS011;10657;51.276;6.390;2022-11-21T14:28:20;4.55;;;1.40;;
20997;SDS011;10657;51.276;6.390;2022-11-21T14:31:04;7.43;;;1.75;;
20997;SDS011;10657;51.276;6.390;2022-11-21T14:33:32;3.90;;;1.10;;
20997;SDS011;10657;51.276;6.390;2022-11-21T14:36:19;4.20;;;1.23;;
20997;SDS011;10657;51.276;6.390;2022-11-21T14:38:49;6.95;;;1.33;;
20997;SDS011;10657;51.276;6.390;2022-11-21T14:41:50;6.68;;;1.42;;
20997;SDS011;10657;51.276;6.390;2022-11-21T14:44:21;3.58;;;1.00;;
20997;SDS011;10657;51.276;6.390;2022-11-21T14:46:49;4.78;;;1.40;;
20997;SDS011;10657;51.276;6.390;2022-11-21T14:49:28;4.35;;;1.15;;
20997;SDS011;10657;51.276;6.390;2022-11-21T14:52:00;3.72;;;1.15;;
20997;SDS011;10657;51.276;6.390;2022-11-21T14:54:53;10.52;;;1.50;;
20997;SDS011;10657;51.276;6.390;2022-11-21T14:57:40;8.18;;;1.50;;
20997;SDS011;10657;51.276;6.390;2022-11-21T15:00:10;4.80;;;1.10;;
20997;SDS011;10657;51.276;6.390;2022-11-21T15:03:00;3.58;;;1.15;;
20997;SDS011;10657;51.276;6.390;2022-11-21T15:05:29;4.93;;;1.00;;
20997;SDS011;10657;51.276;6.390;2022-11-21T15:08:21;5.07;;;1.65;;
20997;SDS011;10657;51.276;6.390;2022-11-21T15:11:09;3.58;;;1.10;;
20997;SDS011;10657;51.276;6.390;2022-11-21T15:13:36;8.27;;;1.40;;
20997;SDS011;10657;51.276;6.390;2022-11-21T15:16:23;4.43;;;1.23;;
20997;SDS011;10657;51.276;6.390;2022-11-21T15:18:50;4.75;;;1.20;;
20997;SDS011;10657;51.276;6.390;2022-11-21T15:21:17;3.22;;;1.05;;
20997;SDS011;10657;51.276;6.390;2022-11-21T15:23:43;5.45;;;1.50;;
20997;SDS011;10657;51.276;6.390;2022-11-21T15:29:16;4.65;;;1.00;;
20997;SDS011;10657;51.276;6.390;2022-11-21T15:32:06;6.72;;;1.70;;
20997;SDS011;10657;51.276;6.390;2022-11-21T15:34:41;5.55;;;1.27;;
20997;SDS011;10657;51.276;6.390;2022-11-21T15:37:14;4.53;;;1.42;;
20997;SDS011;10657;51.276;6.390;2022-11-21T15:39:43;4.10;;;1.02;;
20997;SDS011;10657;51.276;6.390;2022-11-21T15:47:45;8.00;;;1.33;;
20997;SDS011;10657;51.276;6.390;2022-11-21T15:50:13;5.32;;;1.50;;
20997;SDS011;10657;51.276;6.390;2022-11-21T15:52:46;5.30;;;1.40;;
20997;SDS011;10657;51.276;6.390;2022-11-21T15:55:18;6.15;;;1.70;;
20997;SDS011;10657;51.276;6.390;2022-11-21T15:57:54;5.28;;;1.38;;
20997;SDS011;10657;51.276;6.390;2022-11-21T16:00:20;8.88;;;2.60;;
20997;SDS011;10657;51.276;6.390;2022-11-21T16:02:47;3.25;;;1.30;;
20997;SDS011;10657;51.276;6.390;2022-11-21T16:05:14;3.45;;;1.00;;
20997;SDS011;10657;51.276;6.390;2022-11-21T16:07:41;4.35;;;1.30;;
20997;SDS011;10657;51.276;6.390;2022-11-21T16:10:08;6.07;;;1.85;;
20997;SDS011;10657;51.276;6.390;2022-11-21T16:12:44;8.27;;;1.58;;
20997;SDS011;10657;51.276;6.390;2022-11-21T16:15:12;3.40;;;0.90;;
20997;SDS011;10657;51.276;6.390;2022-11-21T16:17:39;5.95;;;1.42;;
20997;SDS011;10657;51.276;6.390;2022-11-21T16:20:06;6.65;;;1.80;;
20997;SDS011;10657;51.276;6.390;2022-11-21T16:22:33;5.75;;;1.23;;
20997;SDS011;10657;51.276;6.390;2022-11-21T16:25:00;5.35;;;1.38;;
20997;SDS011;10657;51.276;6.390;2022-11-21T16:27:26;8.00;;;1.30;;
20997;SDS011;10657;51.276;6.390;2022-11-21T16:29:53;6.75;;;1.05;;
20997;SDS011;10657;51.276;6.390;2022-11-21T16:32:20;4.93;;;1.13;;
20997;SDS011;10657;51.276;6.390;2022-11-21T16:34:46;4.80;;;1.35;;
20997;SDS011;10657;51.276;6.390;2022-11-21T16:37:13;3.33;;;1.08;;
20997;SDS011;10657;51.276;6.390;2022-11-21T16:39:40;3.28;;;1.00;;
20997;SDS011;10657;51.276;6.390;2022-11-21T16:42:08;3.45;;;1.02;;
20997;SDS011;10657;51.276;6.390;2022-11-21T16:44:36;6.32;;;1.75;;
20997;SDS011;10657;51.276;6.390;2022-11-21T16:47:03;4.65;;;1.00;;
20997;SDS011;10657;51.276;6.390;2022-11-21T16:49:33;5.82;;;1.58;;
20997;SDS011;10657;51.276;6.390;2022-11-21T16:52:00;3.40;;;0.95;;